sensor_id;sensor_type;location;lat;lon;timestamp;P1;durP1;ratioP1;P2;durP2;ratioP2
53835;SDS011;39737;43.334;21.936;2023-08-17T00:00:27;12.45;;;7.68;;
53835;SDS011;39737;43.334;21.936;2023-08-17T00:03:14;12.43;;;8.57;;
53835;SDS011;39737;43.334;21.936;2023-08-17T00:06:00;10.70;;;6.53;;
53835;SDS011;39737;43.334;21.936;2023-08-17T00:08:46;13.98;;;7.28;;
53835;SDS011;39737;43.334;21.936;2023-08-17T00:11:33;11.95;;;6.60;;
53835;SDS011;39737;43.334;21.936;2023-08-17T00:14:19;15.15;;;7.97;;
53835;SDS011;39737;43.334;21.936;2023-08-17T00:17:06;10.52;;;7.45;;
53835;SDS011;39737;43.334;21.936;2023-08-17T00:19:52;17.80;;;7.45;;
53835;SDS011;39737;43.334;21.936;2023-08-17T00:22:38;10.27;;;6.85;;
53835;SDS011;39737;43.334;21.936;2023-08-17T00:25:25;12.52;;;7.05;;
53835;SDS011;39737;43.334;21.936;2023-08-17T00:28:11;10.40;;;6.75;;
53835;SDS011;39737;43.334;21.936;2023-08-17T00:30:59;10.40;;;6.75;;
53835;SDS011;39737;43.334;21.936;2023-08-17T00:33:45;11.77;;;7.43;;
53835;SDS011;39737;43.334;21.936;2023-08-17T00:36:32;13.85;;;7.55;;
53835;SDS011;39737;43.334;21.936;2023-08-17T00:39:18;16.85;;;8.63;;
53835;SDS011;39737;43.334;21.936;2023-08-17T00:42:06;22.65;;;8.98;;
53835;SDS011;39737;43.334;21.936;2023-08-17T00:44:54;24.60;;;10.30;;
53835;SDS011;39737;43.334;21.936;2023-08-17T00:47:40;19.50;;;9.70;;
53835;SDS011;39737;43.334;21.936;2023-08-17T00:50:27;18.52;;;9.45;;
53835;SDS011;39737;43.334;21.936;2023-08-17T00:53:13;17.70;;;9.25;;
53835;SDS011;39737;43.334;21.936;2023-08-17T00:56:04;16.57;;;8.90;;
53835;SDS011;39737;43.334;21.936;2023-08-17T00:58:51;20.98;;;9.05;;
53835;SDS011;39737;43.334;21.936;2023-08-17T01:01:38;17.85;;;9.00;;
53835;SDS011;39737;43.334;21.936;2023-08-17T01:04:25;19.67;;;9.48;;
53835;SDS011;39737;43.334;21.936;2023-08-17T01:07:11;23.15;;;9.93;;
53835;SDS011;39737;43.334;21.936;2023-08-17T01:09:57;17.48;;;8.85;;
53835;SDS011;39737;43.334;21.936;2023-08-17T01:15:52;18.10;;;8.68;;
53835;SDS011;39737;43.334;21.936;2023-08-17T01:18:44;19.23;;;9.23;;
53835;SDS011;39737;43.334;21.936;2023-08-17T01:21:41;19.75;;;9.65;;
53835;SDS011;39737;43.334;21.936;2023-08-17T01:24:30;19.83;;;9.48;;
53835;SDS011;39737;43.334;21.936;2023-08-17T01:27:16;18.17;;;8.65;;
53835;SDS011;39737;43.334;21.936;2023-08-17T01:30:03;16.17;;;9.88;;
53835;SDS011;39737;43.334;21.936;2023-08-17T01:35:39;20.90;;;10.77;;
53835;SDS011;39737;43.334;21.936;2023-08-17T01:38:30;18.45;;;10.88;;
53835;SDS011;39737;43.334;21.936;2023-08-17T01:41:17;25.73;;;10.70;;
53835;SDS011;39737;43.334;21.936;2023-08-17T01:44:05;19.27;;;7.97;;
53835;SDS011;39737;43.334;21.936;2023-08-17T01:46:51;17.23;;;8.95;;
53835;SDS011;39737;43.334;21.936;2023-08-17T01:49:40;17.05;;;9.48;;
53835;SDS011;39737;43.334;21.936;2023-08-17T01:52:27;18.85;;;9.85;;
53835;SDS011;39737;43.334;21.936;2023-08-17T01:55:13;18.85;;;9.48;;
53835;SDS011;39737;43.334;21.936;2023-08-17T01:58:01;16.52;;;9.20;;
53835;SDS011;39737;43.334;21.936;2023-08-17T02:00:47;15.98;;;8.80;;
53835;SDS011;39737;43.334;21.936;2023-08-17T02:03:34;17.73;;;9.50;;
53835;SDS011;39737;43.334;21.936;2023-08-17T02:06:20;13.32;;;8.68;;
53835;SDS011;39737;43.334;21.936;2023-08-17T02:09:06;15.70;;;9.13;;
53835;SDS011;39737;43.334;21.936;2023-08-17T02:11:54;15.75;;;9.43;;
53835;SDS011;39737;43.334;21.936;2023-08-17T02:14:40;16.27;;;8.75;;
53835;SDS011;39737;43.334;21.936;2023-08-17T02:17:27;16.20;;;8.45;;
53835;SDS011;39737;43.334;21.936;2023-08-17T02:20:14;19.20;;;8.65;;
53835;SDS011;39737;43.334;21.936;2023-08-17T02:23:01;15.20;;;8.68;;
53835;SDS011;39737;43.334;21.936;2023-08-17T02:25:47;20.40;;;9.73;;
53835;SDS011;39737;43.334;21.936;2023-08-17T02:28:34;14.68;;;7.57;;
53835;SDS011;39737;43.334;21.936;2023-08-17T02:31:20;20.90;;;9.50;;
53835;SDS011;39737;43.334;21.936;2023-08-17T02:34:07;14.70;;;9.45;;
53835;SDS011;39737;43.334;21.936;2023-08-17T02:36:53;18.55;;;8.85;;
53835;SDS011;39737;43.334;21.936;2023-08-17T02:39:39;15.63;;;8.32;;
53835;SDS011;39737;43.334;21.936;2023-08-17T02:42:26;16.38;;;8.38;;
53835;SDS011;39737;43.334;21.936;2023-08-17T02:45:12;12.93;;;8.27;;
53835;SDS011;39737;43.334;21.936;2023-08-17T02:47:58;15.27;;;8.63;;
53835;SDS011;39737;43.334;21.936;2023-08-17T02:50:45;15.88;;;8.68;;
53835;SDS011;39737;43.334;21.936;2023-08-17T02:53:31;11.48;;;7.60;;
53835;SDS011;39737;43.334;21.936;2023-08-17T02:56:17;18.38;;;8.65;;
53835;SDS011;39737;43.334;21.936;2023-08-17T02:59:05;14.55;;;9.35;;
53835;SDS011;39737;43.334;21.936;2023-08-17T03:01:53;17.95;;;8.80;;
53835;SDS011;39737;43.334;21.936;2023-08-17T03:04:39;17.48;;;8.57;;
53835;SDS011;39737;43.334;21.936;2023-08-17T03:07:26;18.00;;;9.45;;
53835;SDS011;39737;43.334;21.936;2023-08-17T03:10:13;15.30;;;7.88;;
53835;SDS011;39737;43.334;21.936;2023-08-17T03:12:59;11.93;;;7.90;;
53835;SDS011;39737;43.334;21.936;2023-08-17T03:15:46;13.20;;;7.68;;
53835;SDS011;39737;43.334;21.936;2023-08-17T03:18:33;16.08;;;7.70;;
53835;SDS011;39737;43.334;21.936;2023-08-17T03:21:19;17.92;;;9.00;;
53835;SDS011;39737;43.334;21.936;2023-08-17T03:24:06;17.70;;;8.23;;
53835;SDS011;39737;43.334;21.936;2023-08-17T03:26:53;19.67;;;9.25;;
53835;SDS011;39737;43.334;21.936;2023-08-17T03:29:42;14.80;;;8.32;;
53835;SDS011;39737;43.334;21.936;2023-08-17T03:32:29;21.83;;;8.95;;
53835;SDS011;39737;43.334;21.936;2023-08-17T03:35:16;17.60;;;9.73;;
53835;SDS011;39737;43.334;21.936;2023-08-17T03:38:02;25.52;;;10.77;;
53835;SDS011;39737;43.334;21.936;2023-08-17T03:40:48;17.23;;;8.75;;
53835;SDS011;39737;43.334;21.936;2023-08-17T03:43:35;23.75;;;8.50;;
53835;SDS011;39737;43.334;21.936;2023-08-17T03:46:22;24.75;;;8.80;;
53835;SDS011;39737;43.334;21.936;2023-08-17T03:49:08;14.82;;;8.32;;
53835;SDS011;39737;43.334;21.936;2023-08-17T03:51:55;14.77;;;8.45;;
53835;SDS011;39737;43.334;21.936;2023-08-17T03:54:41;20.02;;;8.85;;
53835;SDS011;39737;43.334;21.936;2023-08-17T03:57:28;13.57;;;7.72;;
53835;SDS011;39737;43.334;21.936;2023-08-17T04:00:15;12.38;;;7.57;;
53835;SDS011;39737;43.334;21.936;2023-08-17T04:03:02;16.33;;;8.30;;
53835;SDS011;39737;43.334;21.936;2023-08-17T04:05:48;12.90;;;7.85;;
53835;SDS011;39737;43.334;21.936;2023-08-17T04:08:36;15.43;;;8.10;;
53835;SDS011;39737;43.334;21.936;2023-08-17T04:11:23;16.25;;;8.52;;
53835;SDS011;39737;43.334;21.936;2023-08-17T04:14:09;15.13;;;8.93;;
53835;SDS011;39737;43.334;21.936;2023-08-17T04:16:55;13.93;;;8.02;;
53835;SDS011;39737;43.334;21.936;2023-08-17T04:19:44;14.95;;;8.50;;
53835;SDS011;39737;43.334;21.936;2023-08-17T04:22:30;15.90;;;8.15;;
53835;SDS011;39737;43.334;21.936;2023-08-17T04:25:17;14.52;;;9.15;;
53835;SDS011;39737;43.334;21.936;2023-08-17T04:28:03;17.92;;;8.25;;
53835;SDS011;39737;43.334;21.936;2023-08-17T04:30:51;19.60;;;9.10;;
53835;SDS011;39737;43.334;21.936;2023-08-17T04:33:39;14.65;;;8.70;;
53835;SDS011;39737;43.334;21.936;2023-08-17T04:36:25;14.77;;;8.95;;
53835;SDS011;39737;43.334;21.936;2023-08-17T04:39:13;18.05;;;9.80;;
53835;SDS011;39737;43.334;21.936;2023-08-17T04:42:02;17.42;;;9.20;;
53835;SDS011;39737;43.334;21.936;2023-08-17T04:44:50;16.52;;;9.05;;
53835;SDS011;39737;43.334;21.936;2023-08-17T04:47:37;19.10;;;9.75;;
53835;SDS011;39737;43.334;21.936;2023-08-17T04:50:23;19.90;;;9.05;;
53835;SDS011;39737;43.334;21.936;2023-08-17T04:53:11;14.75;;;6.40;;
53835;SDS011;39737;43.334;21.936;2023-08-17T04:55:58;12.18;;;7.10;;
53835;SDS011;39737;43.334;21.936;2023-08-17T04:58:44;13.20;;;6.78;;
53835;SDS011;39737;43.334;21.936;2023-08-17T05:01:32;14.93;;;6.70;;
53835;SDS011;39737;43.334;21.936;2023-08-17T05:04:19;12.48;;;6.55;;
53835;SDS011;39737;43.334;21.936;2023-08-17T05:07:05;11.43;;;6.60;;
53835;SDS011;39737;43.334;21.936;2023-08-17T05:09:51;15.43;;;7.13;;
53835;SDS011;39737;43.334;21.936;2023-08-17T05:12:38;20.73;;;8.90;;
53835;SDS011;39737;43.334;21.936;2023-08-17T05:15:24;17.88;;;9.05;;
53835;SDS011;39737;43.334;21.936;2023-08-17T05:18:11;13.55;;;7.78;;
53835;SDS011;39737;43.334;21.936;2023-08-17T05:20:57;16.83;;;7.57;;
53835;SDS011;39737;43.334;21.936;2023-08-17T05:23:43;15.95;;;8.45;;
53835;SDS011;39737;43.334;21.936;2023-08-17T05:26:30;12.32;;;6.68;;
53835;SDS011;39737;43.334;21.936;2023-08-17T05:29:18;13.35;;;7.65;;
53835;SDS011;39737;43.334;21.936;2023-08-17T05:32:04;14.00;;;7.07;;
53835;SDS011;39737;43.334;21.936;2023-08-17T05:34:51;16.70;;;7.32;;
53835;SDS011;39737;43.334;21.936;2023-08-17T05:37:39;14.45;;;7.50;;
53835;SDS011;39737;43.334;21.936;2023-08-17T05:40:35;10.80;;;6.47;;
53835;SDS011;39737;43.334;21.936;2023-08-17T05:43:22;15.30;;;7.55;;
53835;SDS011;39737;43.334;21.936;2023-08-17T05:46:08;12.88;;;7.00;;
53835;SDS011;39737;43.334;21.936;2023-08-17T05:48:55;11.80;;;6.47;;
53835;SDS011;39737;43.334;21.936;2023-08-17T05:51:41;11.90;;;5.82;;
53835;SDS011;39737;43.334;21.936;2023-08-17T05:54:27;8.63;;;5.07;;
53835;SDS011;39737;43.334;21.936;2023-08-17T05:57:17;11.98;;;6.85;;
53835;SDS011;39737;43.334;21.936;2023-08-17T06:00:06;15.20;;;6.82;;
53835;SDS011;39737;43.334;21.936;2023-08-17T06:02:57;14.70;;;6.25;;
53835;SDS011;39737;43.334;21.936;2023-08-17T06:05:52;12.15;;;6.75;;
53835;SDS011;39737;43.334;21.936;2023-08-17T06:08:38;12.03;;;6.53;;
53835;SDS011;39737;43.334;21.936;2023-08-17T06:11:24;14.15;;;7.28;;
53835;SDS011;39737;43.334;21.936;2023-08-17T06:14:11;10.23;;;6.13;;
53835;SDS011;39737;43.334;21.936;2023-08-17T06:16:57;10.60;;;5.75;;
53835;SDS011;39737;43.334;21.936;2023-08-17T06:19:43;12.13;;;6.53;;
53835;SDS011;39737;43.334;21.936;2023-08-17T06:22:30;11.73;;;6.05;;
53835;SDS011;39737;43.334;21.936;2023-08-17T06:25:20;12.77;;;5.93;;
53835;SDS011;39737;43.334;21.936;2023-08-17T06:28:08;11.00;;;6.22;;
53835;SDS011;39737;43.334;21.936;2023-08-17T06:30:55;8.13;;;5.30;;
53835;SDS011;39737;43.334;21.936;2023-08-17T06:33:42;10.52;;;6.03;;
53835;SDS011;39737;43.334;21.936;2023-08-17T06:36:31;7.85;;;4.85;;
53835;SDS011;39737;43.334;21.936;2023-08-17T06:39:18;14.18;;;6.18;;
53835;SDS011;39737;43.334;21.936;2023-08-17T06:42:04;9.27;;;5.45;;
53835;SDS011;39737;43.334;21.936;2023-08-17T06:45:01;9.32;;;5.65;;
53835;SDS011;39737;43.334;21.936;2023-08-17T06:47:49;12.90;;;6.68;;
53835;SDS011;39737;43.334;21.936;2023-08-17T06:50:35;7.25;;;4.45;;
53835;SDS011;39737;43.334;21.936;2023-08-17T06:53:22;7.93;;;5.03;;
53835;SDS011;39737;43.334;21.936;2023-08-17T06:56:09;10.35;;;5.30;;
53835;SDS011;39737;43.334;21.936;2023-08-17T06:58:55;10.30;;;5.45;;
53835;SDS011;39737;43.334;21.936;2023-08-17T07:01:41;10.20;;;5.75;;
53835;SDS011;39737;43.334;21.936;2023-08-17T07:04:27;12.32;;;5.80;;
53835;SDS011;39737;43.334;21.936;2023-08-17T07:07:17;10.25;;;6.47;;
53835;SDS011;39737;43.334;21.936;2023-08-17T07:10:05;11.38;;;6.07;;
53835;SDS011;39737;43.334;21.936;2023-08-17T07:12:52;9.50;;;5.68;;
53835;SDS011;39737;43.334;21.936;2023-08-17T07:15:39;8.93;;;6.00;;
53835;SDS011;39737;43.334;21.936;2023-08-17T07:18:25;9.25;;;6.53;;
53835;SDS011;39737;43.334;21.936;2023-08-17T07:21:12;17.92;;;6.57;;
53835;SDS011;39737;43.334;21.936;2023-08-17T07:24:05;13.23;;;6.40;;
53835;SDS011;39737;43.334;21.936;2023-08-17T07:26:56;12.15;;;6.68;;
53835;SDS011;39737;43.334;21.936;2023-08-17T07:29:43;11.35;;;7.28;;
53835;SDS011;39737;43.334;21.936;2023-08-17T07:32:29;13.88;;;6.03;;
53835;SDS011;39737;43.334;21.936;2023-08-17T07:35:15;14.75;;;5.72;;
53835;SDS011;39737;43.334;21.936;2023-08-17T07:38:02;11.18;;;6.25;;
53835;SDS011;39737;43.334;21.936;2023-08-17T07:40:57;14.35;;;6.78;;
53835;SDS011;39737;43.334;21.936;2023-08-17T07:43:43;14.80;;;7.10;;
53835;SDS011;39737;43.334;21.936;2023-08-17T07:46:29;8.95;;;6.65;;
53835;SDS011;39737;43.334;21.936;2023-08-17T07:49:16;13.02;;;7.38;;
53835;SDS011;39737;43.334;21.936;2023-08-17T07:52:22;11.82;;;7.38;;
53835;SDS011;39737;43.334;21.936;2023-08-17T07:55:09;17.33;;;5.80;;
53835;SDS011;39737;43.334;21.936;2023-08-17T07:57:55;11.48;;;6.43;;
53835;SDS011;39737;43.334;21.936;2023-08-17T08:00:41;10.77;;;5.35;;
53835;SDS011;39737;43.334;21.936;2023-08-17T08:03:28;12.30;;;6.60;;
53835;SDS011;39737;43.334;21.936;2023-08-17T08:06:14;13.15;;;6.65;;
53835;SDS011;39737;43.334;21.936;2023-08-17T08:09:00;11.30;;;6.10;;
53835;SDS011;39737;43.334;21.936;2023-08-17T08:11:46;10.35;;;6.18;;
53835;SDS011;39737;43.334;21.936;2023-08-17T08:14:33;10.70;;;5.28;;
53835;SDS011;39737;43.334;21.936;2023-08-17T08:17:19;12.52;;;5.72;;
53835;SDS011;39737;43.334;21.936;2023-08-17T08:20:05;7.82;;;5.15;;
53835;SDS011;39737;43.334;21.936;2023-08-17T08:22:52;11.43;;;5.40;;
53835;SDS011;39737;43.334;21.936;2023-08-17T08:25:39;9.02;;;5.25;;
53835;SDS011;39737;43.334;21.936;2023-08-17T08:28:25;13.07;;;5.30;;
53835;SDS011;39737;43.334;21.936;2023-08-17T08:31:11;17.95;;;5.38;;
53835;SDS011;39737;43.334;21.936;2023-08-17T08:33:58;8.20;;;5.28;;
53835;SDS011;39737;43.334;21.936;2023-08-17T08:36:45;13.27;;;5.50;;
53835;SDS011;39737;43.334;21.936;2023-08-17T08:39:31;9.85;;;4.60;;
53835;SDS011;39737;43.334;21.936;2023-08-17T08:42:20;7.35;;;4.80;;
53835;SDS011;39737;43.334;21.936;2023-08-17T08:45:07;8.73;;;4.88;;
53835;SDS011;39737;43.334;21.936;2023-08-17T08:47:53;9.45;;;5.22;;
53835;SDS011;39737;43.334;21.936;2023-08-17T08:50:40;11.73;;;4.70;;
53835;SDS011;39737;43.334;21.936;2023-08-17T08:53:37;6.38;;;4.60;;
53835;SDS011;39737;43.334;21.936;2023-08-17T08:56:23;8.55;;;4.10;;
53835;SDS011;39737;43.334;21.936;2023-08-17T08:59:16;8.85;;;4.53;;
53835;SDS011;39737;43.334;21.936;2023-08-17T09:03:02;8.43;;;4.20;;
53835;SDS011;39737;43.334;21.936;2023-08-17T09:05:50;10.38;;;5.00;;
53835;SDS011;39737;43.334;21.936;2023-08-17T09:08:36;8.68;;;4.47;;
53835;SDS011;39737;43.334;21.936;2023-08-17T09:11:24;9.32;;;4.72;;
53835;SDS011;39737;43.334;21.936;2023-08-17T09:14:11;7.07;;;4.72;;
53835;SDS011;39737;43.334;21.936;2023-08-17T09:16:57;7.72;;;4.88;;
53835;SDS011;39737;43.334;21.936;2023-08-17T09:19:47;13.82;;;6.05;;
53835;SDS011;39737;43.334;21.936;2023-08-17T09:22:41;8.18;;;4.65;;
53835;SDS011;39737;43.334;21.936;2023-08-17T09:25:30;10.30;;;5.13;;
53835;SDS011;39737;43.334;21.936;2023-08-17T09:28:18;10.35;;;4.43;;
53835;SDS011;39737;43.334;21.936;2023-08-17T09:31:04;7.45;;;4.82;;
53835;SDS011;39737;43.334;21.936;2023-08-17T09:33:51;6.38;;;4.50;;
53835;SDS011;39737;43.334;21.936;2023-08-17T09:36:37;8.57;;;4.38;;
53835;SDS011;39737;43.334;21.936;2023-08-17T09:39:25;8.57;;;4.00;;
53835;SDS011;39737;43.334;21.936;2023-08-17T09:42:11;7.88;;;4.70;;
53835;SDS011;39737;43.334;21.936;2023-08-17T09:44:58;7.43;;;4.25;;
53835;SDS011;39737;43.334;21.936;2023-08-17T09:47:48;7.28;;;3.80;;
53835;SDS011;39737;43.334;21.936;2023-08-17T09:50:35;10.43;;;4.03;;
53835;SDS011;39737;43.334;21.936;2023-08-17T09:53:24;13.27;;;4.53;;
53835;SDS011;39737;43.334;21.936;2023-08-17T09:56:10;7.32;;;4.40;;
53835;SDS011;39737;43.334;21.936;2023-08-17T09:59:02;13.80;;;4.72;;
53835;SDS011;39737;43.334;21.936;2023-08-17T10:05:12;8.50;;;4.35;;
53835;SDS011;39737;43.334;21.936;2023-08-17T10:07:59;6.90;;;3.63;;
53835;SDS011;39737;43.334;21.936;2023-08-17T10:10:45;9.02;;;4.13;;
53835;SDS011;39737;43.334;21.936;2023-08-17T10:13:37;6.50;;;3.88;;
53835;SDS011;39737;43.334;21.936;2023-08-17T10:16:29;5.10;;;3.22;;
53835;SDS011;39737;43.334;21.936;2023-08-17T10:24:55;7.38;;;3.95;;
53835;SDS011;39737;43.334;21.936;2023-08-17T10:27:41;12.63;;;4.20;;
53835;SDS011;39737;43.334;21.936;2023-08-17T10:30:29;8.38;;;4.63;;
53835;SDS011;39737;43.334;21.936;2023-08-17T10:33:15;6.07;;;3.92;;
53835;SDS011;39737;43.334;21.936;2023-08-17T10:36:02;8.75;;;4.47;;
53835;SDS011;39737;43.334;21.936;2023-08-17T10:39:17;6.97;;;4.35;;
53835;SDS011;39737;43.334;21.936;2023-08-17T10:41:57;7.50;;;4.10;;
53835;SDS011;39737;43.334;21.936;2023-08-17T10:44:48;7.72;;;4.35;;
53835;SDS011;39737;43.334;21.936;2023-08-17T10:51:09;10.20;;;4.53;;
53835;SDS011;39737;43.334;21.936;2023-08-17T10:54:13;9.50;;;4.70;;
53835;SDS011;39737;43.334;21.936;2023-08-17T11:00:52;6.93;;;3.67;;
53835;SDS011;39737;43.334;21.936;2023-08-17T11:04:10;10.43;;;3.88;;
53835;SDS011;39737;43.334;21.936;2023-08-17T11:07:13;6.25;;;3.63;;
53835;SDS011;39737;43.334;21.936;2023-08-17T11:13:17;6.20;;;3.90;;
53835;SDS011;39737;43.334;21.936;2023-08-17T11:16:20;11.38;;;4.20;;
53835;SDS011;39737;43.334;21.936;2023-08-17T11:19:19;7.85;;;4.38;;
53835;SDS011;39737;43.334;21.936;2023-08-17T11:22:21;6.47;;;4.07;;
53835;SDS011;39737;43.334;21.936;2023-08-17T11:25:24;8.10;;;4.10;;
53835;SDS011;39737;43.334;21.936;2023-08-17T11:28:29;6.18;;;4.32;;
53835;SDS011;39737;43.334;21.936;2023-08-17T11:31:53;9.07;;;3.75;;
53835;SDS011;39737;43.334;21.936;2023-08-17T11:34:57;13.60;;;4.65;;
53835;SDS011;39737;43.334;21.936;2023-08-17T11:37:46;7.13;;;4.25;;
53835;SDS011;39737;43.334;21.936;2023-08-17T11:40:45;6.20;;;3.58;;
53835;SDS011;39737;43.334;21.936;2023-08-17T11:43:32;7.60;;;4.50;;
53835;SDS011;39737;43.334;21.936;2023-08-17T11:46:18;5.80;;;4.15;;
53835;SDS011;39737;43.334;21.936;2023-08-17T11:49:04;10.55;;;4.88;;
53835;SDS011;39737;43.334;21.936;2023-08-17T11:51:51;8.63;;;3.97;;
53835;SDS011;39737;43.334;21.936;2023-08-17T11:54:40;6.25;;;3.80;;
53835;SDS011;39737;43.334;21.936;2023-08-17T11:57:27;7.05;;;4.03;;
53835;SDS011;39737;43.334;21.936;2023-08-17T12:00:19;5.50;;;3.67;;
53835;SDS011;39737;43.334;21.936;2023-08-17T12:03:07;8.98;;;4.10;;
53835;SDS011;39737;43.334;21.936;2023-08-17T12:05:53;12.73;;;4.50;;
53835;SDS011;39737;43.334;21.936;2023-08-17T12:08:47;13.77;;;4.63;;
53835;SDS011;39737;43.334;21.936;2023-08-17T12:11:35;13.68;;;4.63;;
53835;SDS011;39737;43.334;21.936;2023-08-17T12:14:22;9.65;;;4.20;;
53835;SDS011;39737;43.334;21.936;2023-08-17T12:17:13;5.72;;;3.97;;
53835;SDS011;39737;43.334;21.936;2023-08-17T12:20:00;10.93;;;4.53;;
53835;SDS011;39737;43.334;21.936;2023-08-17T12:22:52;10.50;;;4.50;;
53835;SDS011;39737;43.334;21.936;2023-08-17T12:25:38;11.65;;;4.35;;
53835;SDS011;39737;43.334;21.936;2023-08-17T12:28:24;15.68;;;5.32;;
53835;SDS011;39737;43.334;21.936;2023-08-17T12:31:11;8.40;;;5.43;;
53835;SDS011;39737;43.334;21.936;2023-08-17T12:33:57;15.50;;;4.95;;
53835;SDS011;39737;43.334;21.936;2023-08-17T12:36:43;9.98;;;5.07;;
53835;SDS011;39737;43.334;21.936;2023-08-17T12:39:30;10.27;;;5.75;;
53835;SDS011;39737;43.334;21.936;2023-08-17T12:42:16;9.10;;;5.35;;
53835;SDS011;39737;43.334;21.936;2023-08-17T12:45:04;10.02;;;4.90;;
53835;SDS011;39737;43.334;21.936;2023-08-17T12:47:50;12.27;;;6.07;;
53835;SDS011;39737;43.334;21.936;2023-08-17T12:50:37;8.68;;;5.05;;
53835;SDS011;39737;43.334;21.936;2023-08-17T12:53:28;9.40;;;5.20;;
53835;SDS011;39737;43.334;21.936;2023-08-17T12:56:14;10.05;;;5.90;;
53835;SDS011;39737;43.334;21.936;2023-08-17T12:59:01;9.70;;;5.53;;
53835;SDS011;39737;43.334;21.936;2023-08-17T13:01:49;14.07;;;5.82;;
53835;SDS011;39737;43.334;21.936;2023-08-17T13:04:36;8.30;;;5.55;;
53835;SDS011;39737;43.334;21.936;2023-08-17T13:07:22;7.85;;;5.57;;
53835;SDS011;39737;43.334;21.936;2023-08-17T13:10:08;10.20;;;4.85;;
53835;SDS011;39737;43.334;21.936;2023-08-17T13:12:55;8.88;;;5.43;;
53835;SDS011;39737;43.334;21.936;2023-08-17T13:15:44;8.05;;;5.38;;
53835;SDS011;39737;43.334;21.936;2023-08-17T13:18:31;11.88;;;6.50;;
53835;SDS011;39737;43.334;21.936;2023-08-17T13:21:17;11.90;;;5.70;;
53835;SDS011;39737;43.334;21.936;2023-08-17T13:24:04;13.35;;;6.18;;
53835;SDS011;39737;43.334;21.936;2023-08-17T13:26:50;13.10;;;5.85;;
53835;SDS011;39737;43.334;21.936;2023-08-17T13:29:38;10.98;;;6.03;;
53835;SDS011;39737;43.334;21.936;2023-08-17T13:32:26;11.27;;;5.30;;
53835;SDS011;39737;43.334;21.936;2023-08-17T13:35:13;8.18;;;5.47;;
53835;SDS011;39737;43.334;21.936;2023-08-17T13:38:00;16.38;;;5.43;;
53835;SDS011;39737;43.334;21.936;2023-08-17T13:40:48;12.02;;;6.18;;
53835;SDS011;39737;43.334;21.936;2023-08-17T13:43:35;8.60;;;5.63;;
53835;SDS011;39737;43.334;21.936;2023-08-17T13:46:21;6.63;;;4.68;;
53835;SDS011;39737;43.334;21.936;2023-08-17T13:49:07;10.13;;;5.70;;
53835;SDS011;39737;43.334;21.936;2023-08-17T13:51:54;8.15;;;5.85;;
53835;SDS011;39737;43.334;21.936;2023-08-17T13:54:42;9.48;;;6.07;;
53835;SDS011;39737;43.334;21.936;2023-08-17T13:57:29;12.73;;;5.85;;
53835;SDS011;39737;43.334;21.936;2023-08-17T14:00:15;13.75;;;6.50;;
53835;SDS011;39737;43.334;21.936;2023-08-17T14:03:03;12.98;;;6.07;;
53835;SDS011;39737;43.334;21.936;2023-08-17T14:05:49;7.40;;;4.97;;
53835;SDS011;39737;43.334;21.936;2023-08-17T14:08:36;9.68;;;5.78;;
53835;SDS011;39737;43.334;21.936;2023-08-17T14:11:22;10.88;;;5.68;;
53835;SDS011;39737;43.334;21.936;2023-08-17T14:14:08;21.88;;;5.32;;
53835;SDS011;39737;43.334;21.936;2023-08-17T14:16:55;10.88;;;5.63;;
53835;SDS011;39737;43.334;21.936;2023-08-17T14:19:42;12.35;;;5.32;;
53835;SDS011;39737;43.334;21.936;2023-08-17T14:22:29;18.60;;;6.13;;
53835;SDS011;39737;43.334;21.936;2023-08-17T14:25:15;13.95;;;6.13;;
53835;SDS011;39737;43.334;21.936;2023-08-17T14:28:03;12.52;;;5.85;;
53835;SDS011;39737;43.334;21.936;2023-08-17T14:30:50;6.47;;;4.68;;
53835;SDS011;39737;43.334;21.936;2023-08-17T14:33:38;8.18;;;6.05;;
53835;SDS011;39737;43.334;21.936;2023-08-17T14:36:24;8.23;;;5.40;;
53835;SDS011;39737;43.334;21.936;2023-08-17T14:39:10;9.13;;;5.50;;
53835;SDS011;39737;43.334;21.936;2023-08-17T14:41:57;9.38;;;5.55;;
53835;SDS011;39737;43.334;21.936;2023-08-17T14:44:43;8.23;;;5.10;;
53835;SDS011;39737;43.334;21.936;2023-08-17T14:47:30;11.52;;;6.03;;
53835;SDS011;39737;43.334;21.936;2023-08-17T14:50:16;10.23;;;5.05;;
53835;SDS011;39737;43.334;21.936;2023-08-17T14:53:03;13.02;;;5.78;;
53835;SDS011;39737;43.334;21.936;2023-08-17T14:55:49;11.90;;;6.28;;
53835;SDS011;39737;43.334;21.936;2023-08-17T14:58:35;11.70;;;5.57;;
53835;SDS011;39737;43.334;21.936;2023-08-17T15:01:22;9.50;;;4.93;;
53835;SDS011;39737;43.334;21.936;2023-08-17T15:04:09;10.02;;;5.78;;
53835;SDS011;39737;43.334;21.936;2023-08-17T15:06:55;10.70;;;5.10;;
53835;SDS011;39737;43.334;21.936;2023-08-17T15:09:41;12.63;;;6.18;;
53835;SDS011;39737;43.334;21.936;2023-08-17T15:12:28;9.65;;;5.95;;
53835;SDS011;39737;43.334;21.936;2023-08-17T15:15:14;10.90;;;5.40;;
53835;SDS011;39737;43.334;21.936;2023-08-17T15:18:05;13.23;;;5.97;;
53835;SDS011;39737;43.334;21.936;2023-08-17T15:20:51;15.98;;;6.65;;
53835;SDS011;39737;43.334;21.936;2023-08-17T15:23:38;10.63;;;5.60;;
53835;SDS011;39737;43.334;21.936;2023-08-17T15:26:24;9.32;;;5.32;;
53835;SDS011;39737;43.334;21.936;2023-08-17T15:29:10;14.75;;;5.57;;
53835;SDS011;39737;43.334;21.936;2023-08-17T15:31:57;13.35;;;6.50;;
53835;SDS011;39737;43.334;21.936;2023-08-17T15:34:43;10.02;;;5.57;;
53835;SDS011;39737;43.334;21.936;2023-08-17T15:37:29;6.75;;;5.00;;
53835;SDS011;39737;43.334;21.936;2023-08-17T15:40:16;9.60;;;5.53;;
53835;SDS011;39737;43.334;21.936;2023-08-17T15:43:03;12.93;;;5.70;;
53835;SDS011;39737;43.334;21.936;2023-08-17T15:45:50;11.63;;;5.57;;
53835;SDS011;39737;43.334;21.936;2023-08-17T15:48:37;11.57;;;5.82;;
53835;SDS011;39737;43.334;21.936;2023-08-17T15:51:24;11.68;;;5.45;;
53835;SDS011;39737;43.334;21.936;2023-08-17T15:54:13;15.35;;;6.25;;
53835;SDS011;39737;43.334;21.936;2023-08-17T15:57:18;15.32;;;5.95;;
53835;SDS011;39737;43.334;21.936;2023-08-17T16:00:07;9.85;;;5.50;;
53835;SDS011;39737;43.334;21.936;2023-08-17T16:02:54;16.70;;;6.45;;
53835;SDS011;39737;43.334;21.936;2023-08-17T16:05:40;9.77;;;5.40;;
53835;SDS011;39737;43.334;21.936;2023-08-17T16:08:26;14.63;;;6.53;;
53835;SDS011;39737;43.334;21.936;2023-08-17T16:11:33;12.18;;;6.40;;
53835;SDS011;39737;43.334;21.936;2023-08-17T16:14:23;10.40;;;5.68;;
53835;SDS011;39737;43.334;21.936;2023-08-17T16:17:09;12.77;;;6.00;;
53835;SDS011;39737;43.334;21.936;2023-08-17T16:19:55;21.10;;;7.03;;
53835;SDS011;39737;43.334;21.936;2023-08-17T16:22:42;16.48;;;6.50;;
53835;SDS011;39737;43.334;21.936;2023-08-17T16:25:29;15.32;;;5.95;;
53835;SDS011;39737;43.334;21.936;2023-08-17T16:28:17;10.15;;;5.97;;
53835;SDS011;39737;43.334;21.936;2023-08-17T16:31:03;11.20;;;5.53;;
53835;SDS011;39737;43.334;21.936;2023-08-17T16:33:50;11.77;;;6.18;;
53835;SDS011;39737;43.334;21.936;2023-08-17T16:36:36;12.93;;;6.00;;
53835;SDS011;39737;43.334;21.936;2023-08-17T16:39:23;9.43;;;5.35;;
53835;SDS011;39737;43.334;21.936;2023-08-17T16:42:09;10.85;;;6.38;;
53835;SDS011;39737;43.334;21.936;2023-08-17T16:44:56;17.00;;;6.47;;
53835;SDS011;39737;43.334;21.936;2023-08-17T16:47:42;17.08;;;5.18;;
53835;SDS011;39737;43.334;21.936;2023-08-17T16:50:29;11.02;;;6.15;;
53835;SDS011;39737;43.334;21.936;2023-08-17T16:53:18;16.70;;;6.03;;